Time;durP1;ratioP1;P1;durP2;ratioP2;P2;SDS_P1;SDS_P2;PMS_P1;PMS_P2;Temp;Humidity;BMP_temperature;BMP_pressure;BME280_temperature;BME280_humidity;BME280_pressure;Samples;Min_cycle;Max_cycle;Signal;HPM_P1;HPM_P2
2022/09/04 06:29:05;;;;;;;;;6.00;6.00;;;;;;;;6338635;22;46482;-89
2022/09/04 06:31:32;;;;;;;;;6.00;6.00;;;;;;;;6369890;22;45578;-88
2022/09/04 06:34:10;;;;;;;;;4.00;4.00;;;;;;;;6338160;22;45502;-89
2022/09/04 06:36:35;;;;;;;;;5.67;4.33;;;;;;;;6368022;22;45298;-89
2022/09/04 06:39:00;;;;;;;;;3.00;3.00;;;;;;;;6337795;22;45338;-89
2022/09/04 06:41:38;;;;;;;;;5.00;3.25;;;;;;;;6339973;22;46889;-89
2022/09/04 06:44:03;;;;;;;;;4.00;4.00;;;;;;;;6375161;22;45194;-89
2022/09/04 06:46:28;;;;;;;;;5.00;4.00;;;;;;;;6345340;22;45162;-89
2022/09/04 06:49:07;;;;;;;;;4.00;4.00;;;;;;;;6345238;22;45290;-89
2022/09/04 06:51:35;;;;;;;;;5.00;3.67;;;;;;;;6344391;22;46205;-88
2022/09/04 06:54:07;;;;;;;;;6.00;6.00;;;;;;;;6341461;22;45739;-89
2022/09/04 06:56:38;;;;;;;;;3.67;3.67;;;;;;;;6376416;22;45205;-89
2022/09/04 06:59:33;;;;;;;;;4.00;4.00;;;;;;;;6345980;22;45367;-91
2022/09/04 07:02:17;;;;;;;;;5.00;5.00;;;;;;;;6348543;22;45372;-93
2022/09/04 07:04:50;;;;;;;;;4.67;4.00;;;;;;;;6376545;22;45315;-93
2022/09/04 07:07:34;;;;;;;;;10.00;6.00;;;;;;;;6341393;22;45336;-89
2022/09/04 07:10:05;;;;;;;;;5.00;5.00;;;;;;;;6337422;22;45333;-89
2022/09/04 07:12:36;;;;;;;;;7.67;5.67;;;;;;;;6366853;22;45310;-87
2022/09/04 07:15:20;;;;;;;;;2.33;2.33;;;;;;;;6366340;22;45376;-89
2022/09/04 07:17:45;;;;;;;;;5.67;5.67;;;;;;;;6338082;22;45343;-88
2022/09/04 07:20:14;;;;;;;;;5.67;5.00;;;;;;;;6338091;22;45369;-88
2022/09/04 07:22:58;;;;;;;;;7.00;6.00;;;;;;;;6339047;22;47395;-88
2022/09/04 07:25:26;;;;;;;;;5.33;4.33;;;;;;;;6368131;22;45387;-89
2022/09/04 07:28:06;;;;;;;;;7.00;6.00;;;;;;;;6368223;22;45268;-88
2022/09/04 07:30:42;;;;;;;;;6.00;4.33;;;;;;;;6367506;22;45423;-88
2022/09/04 07:33:22;;;;;;;;;5.33;5.33;;;;;;;;6339498;22;47465;-89
2022/09/04 07:35:53;;;;;;;;;3.67;3.67;;;;;;;;6367098;22;45422;-89
2022/09/04 07:38:37;;;;;;;;;4.67;4.67;;;;;;;;6339304;22;45839;-88
2022/09/04 07:41:11;;;;;;;;;4.33;4.33;;;;;;;;6367968;22;45502;-88
2022/09/04 07:43:45;;;;;;;;;5.33;3.33;;;;;;;;6366341;22;45708;-88
2022/09/04 07:46:10;;;;;;;;;5.33;4.00;;;;;;;;6338791;22;45375;-88
2022/09/04 07:48:39;;;;;;;;;5.00;4.00;;;;;;;;6339207;22;45385;-88
2022/09/04 07:51:20;;;;;;;;;6.33;4.67;;;;;;;;6339500;22;45346;-89
2022/09/04 07:53:54;;;;;;;;;3.00;3.00;;;;;;;;6366315;22;45602;-87
2022/09/04 07:56:20;;;;;;;;;4.67;4.67;;;;;;;;6367856;22;45361;-89
2022/09/04 07:58:49;;;;;;;;;6.25;6.00;;;;;;;;6367459;22;45309;-88
2022/09/04 08:01:33;;;;;;;;;6.33;5.00;;;;;;;;6340395;22;45393;-88
2022/09/04 08:04:16;;;;;;;;;5.00;5.00;;;;;;;;6368050;22;46967;-87
2022/09/04 08:06:51;;;;;;;;;2.00;1.67;;;;;;;;6369208;22;45341;-88
2022/09/04 08:09:17;;;;;;;;;6.33;5.00;;;;;;;;6339401;22;45452;-87
2022/09/04 08:11:56;;;;;;;;;6.00;4.67;;;;;;;;6369276;22;45291;-88
2022/09/04 08:14:30;;;;;;;;;4.00;3.67;;;;;;;;6367668;22;45553;-88
2022/09/04 08:17:23;;;;;;;;;3.00;3.00;;;;;;;;6340118;22;45283;-88
2022/09/04 08:20:16;;;;;;;;;5.33;4.00;;;;;;;;6368985;22;45409;-88
2022/09/04 08:22:44;;;;;;;;;6.00;5.00;;;;;;;;6368895;22;45334;-88
2022/09/04 08:25:12;;;;;;;;;5.00;5.00;;;;;;;;6339470;22;47098;-87
2022/09/04 08:27:48;;;;;;;;;4.00;3.33;;;;;;;;6339670;22;45377;-89
2022/09/04 08:30:17;;;;;;;;;7.00;5.00;;;;;;;;6368397;22;45418;-88
2022/09/04 08:32:55;;;;;;;;;4.67;4.67;;;;;;;;6369269;22;45491;-87
2022/09/04 08:35:29;;;;;;;;;7.00;6.00;;;;;;;;6341077;22;47582;-88
2022/09/04 08:38:00;;;;;;;;;4.00;4.00;;;;;;;;6368930;22;45287;-88
2022/09/04 08:40:28;;;;;;;;;3.00;3.00;;;;;;;;6369386;22;45371;-88
2022/09/04 08:42:53;;;;;;;;;6.00;4.33;;;;;;;;6341221;22;45736;-88
2022/09/04 08:45:37;;;;;;;;;5.50;5.50;;;;;;;;6341558;22;46841;-87
2022/09/04 08:48:11;;;;;;;;;5.67;4.00;;;;;;;;6370471;22;45460;-88
2022/09/04 08:50:52;;;;;;;;;5.00;4.00;;;;;;;;6340168;22;45435;-87
2022/09/04 08:53:31;;;;;;;;;5.00;4.00;;;;;;;;6337421;22;45315;-89
2022/09/04 08:56:06;;;;;;;;;4.00;4.00;;;;;;;;6367304;22;46242;-87
2022/09/04 08:58:44;;;;;;;;;4.00;3.67;;;;;;;;6367668;22;45285;-88
2022/09/04 09:01:18;;;;;;;;;3.00;3.00;;;;;;;;6367661;22;45209;-88
2022/09/04 09:04:08;;;;;;;;;2.67;2.67;;;;;;;;6339731;22;45384;-89
2022/09/04 09:06:50;;;;;;;;;4.00;3.00;;;;;;;;6338990;22;47345;-87
2022/09/04 09:09:44;;;;;;;;;4.33;3.67;;;;;;;;6336564;22;45411;-89
2022/09/04 09:12:09;;;;;;;;;6.00;3.00;;;;;;;;6237694;22;45382;-89
2022/09/04 09:14:53;;;;;;;;;3.00;3.00;;;;;;;;6212381;22;45730;-89
2022/09/04 09:17:28;;;;;;;;;3.00;3.00;;;;;;;;6212931;22;48354;-89
2022/09/04 09:19:59;;;;;;;;;4.00;2.33;;;;;;;;6239904;22;45723;-90
2022/09/04 09:22:24;;;;;;;;;4.33;4.33;;;;;;;;6239721;22;45312;-89
2022/09/04 09:25:03;;;;;;;;;3.75;2.75;;;;;;;;6237914;22;45516;-89
2022/09/04 09:27:34;;;;;;;;;3.00;3.00;;;;;;;;6239259;22;46368;-88
2022/09/04 09:30:14;;;;;;;;;5.00;4.00;;;;;;;;6212127;22;45399;-89
2022/09/04 09:32:49;;;;;;;;;5.00;5.00;;;;;;;;6239024;22;45458;-88
2022/09/04 09:35:32;;;;;;;;;4.67;3.00;;;;;;;;6213661;22;45349;-88
2022/09/04 09:37:58;;;;;;;;;2.33;2.00;;;;;;;;6239100;22;45408;-89
2022/09/04 09:40:23;;;;;;;;;3.33;3.33;;;;;;;;6212490;22;45847;-89
2022/09/04 09:42:48;;;;;;;;;3.00;3.00;;;;;;;;6239763;22;45745;-89
2022/09/04 09:45:35;;;;;;;;;35.75;31.50;;;;;;;;6240580;22;45263;-88
2022/09/04 09:48:19;;;;;;;;;8.00;8.00;;;;;;;;6273002;22;46523;-88
2022/09/04 09:51:05;;;;;;;;;4.67;4.67;;;;;;;;6368922;22;45254;-88
2022/09/04 09:53:36;;;;;;;;;5.00;4.00;;;;;;;;6367237;22;45221;-88
2022/09/04 09:56:05;;;;;;;;;3.67;3.67;;;;;;;;6339909;22;45272;-88
2022/09/04 09:59:00;;;;;;;;;31.33;26.67;;;;;;;;6367616;22;45536;-88
2022/09/04 10:01:44;;;;;;;;;64.50;50.75;;;;;;;;6237642;22;45212;-88
2022/09/04 10:04:28;;;;;;;;;7.33;6.33;;;;;;;;6212805;22;45393;-88
2022/09/04 10:07:13;;;;;;;;;2.33;2.00;;;;;;;;6238971;22;45517;-88
2022/09/04 10:09:55;;;;;;;;;2.00;2.00;;;;;;;;6211466;22;48557;-88
2022/09/04 10:12:20;;;;;;;;;3.33;3.00;;;;;;;;6212925;22;45344;-89
2022/09/04 10:15:01;;;;;;;;;3.00;3.00;;;;;;;;6239724;22;45433;-93
2022/09/04 10:17:45;;;;;;;;;3.00;1.33;;;;;;;;6240400;22;45361;-88
2022/09/04 10:20:45;;;;;;;;;3.67;3.67;;;;;;;;6240040;22;46292;-88
2022/09/04 10:23:28;;;;;;;;;3.00;3.00;;;;;;;;6147639;23;45415;-87
2022/09/04 10:26:05;;;;;;;;;5.00;3.33;;;;;;;;6147982;23;45356;-87
2022/09/04 10:28:48;;;;;;;;;2.00;2.00;;;;;;;;6147482;23;45443;-87
2022/09/04 10:31:16;;;;;;;;;4.67;4.00;;;;;;;;6147945;23;46349;-86
2022/09/04 10:33:58;;;;;;;;;18.00;17.67;;;;;;;;6147137;23;45324;-89
2022/09/04 10:36:34;;;;;;;;;27.67;25.33;;;;;;;;6150559;23;45405;-87
2022/09/04 10:42:08;;;;;;;;;11.00;8.33;;;;;;;;6270192;22;45349;-89
2022/09/04 10:44:43;;;;;;;;;6.33;5.00;;;;;;;;6268720;22;45345;-89
2022/09/04 10:47:13;;;;;;;;;6.00;6.00;;;;;;;;6268955;22;45480;-88
2022/09/04 10:49:58;;;;;;;;;7.00;5.00;;;;;;;;6268704;22;45575;-88
2022/09/04 10:52:29;;;;;;;;;3.00;3.00;;;;;;;;6242732;22;48091;-88
2022/09/04 10:55:06;;;;;;;;;1.67;1.67;;;;;;;;6268794;22;45400;-88
2022/09/04 10:57:31;;;;;;;;;4.33;4.33;;;;;;;;6270279;22;45377;-90
2022/09/04 11:00:05;;;;;;;;;7.00;7.00;;;;;;;;6337074;22;45675;-88
2022/09/04 11:02:34;;;;;;;;;24.00;20.33;;;;;;;;6366586;22;46291;-88
2022/09/04 11:05:05;;;;;;;;;49.25;40.75;;;;;;;;6338007;22;45350;-89
2022/09/04 11:07:50;;;;;;;;;7.33;7.33;;;;;;;;6367437;22;45343;-88
2022/09/04 11:10:15;;;;;;;;;7.00;5.00;;;;;;;;6366795;22;45399;-89
2022/09/04 11:13:05;;;;;;;;;5.50;5.50;;;;;;;;6367056;22;46215;-88
2022/09/04 11:15:49;;;;;;;;;12.33;12.33;;;;;;;;6338035;22;45498;-87
2022/09/04 11:18:23;;;;;;;;;6.00;6.00;;;;;;;;6338781;22;45874;-89
2022/09/04 11:20:51;;;;;;;;;10.67;9.00;;;;;;;;6366560;22;45434;-88
2022/09/04 11:23:37;;;;;;;;;15.00;12.33;;;;;;;;6338729;22;47537;-88
2022/09/04 11:26:14;;;;;;;;;5.00;5.00;;;;;;;;6236900;22;45303;-88
2022/09/04 11:28:49;;;;;;;;;5.00;3.67;;;;;;;;6237748;22;45513;-88
2022/09/04 11:31:33;;;;;;;;;3.00;3.00;;;;;;;;6212418;22;45318;-88
2022/09/04 11:34:17;;;;;;;;;3.67;3.00;;;;;;;;6212238;22;47212;-88
2022/09/04 11:37:00;;;;;;;;;10.00;10.00;;;;;;;;6212314;22;45387;-88
2022/09/04 11:39:55;;;;;;;;;6.00;6.00;;;;;;;;6211463;22;45329;-88
2022/09/04 11:42:20;;;;;;;;;5.00;3.67;;;;;;;;6238318;22;45329;-90
2022/09/04 11:44:51;;;;;;;;;2.33;2.33;;;;;;;;6237307;22;46470;-88
2022/09/04 11:47:28;;;;;;;;;7.67;5.00;;;;;;;;6240409;22;45428;-87
2022/09/04 11:50:15;;;;;;;;;5.00;4.00;;;;;;;;6214445;22;45337;-88
2022/09/04 11:52:52;;;;;;;;;5.00;4.00;;;;;;;;6214080;22;45956;-88
2022/09/04 11:55:29;;;;;;;;;7.00;7.00;;;;;;;;6214684;22;47498;-88
2022/09/04 11:58:03;;;;;;;;;1.00;1.00;;;;;;;;6213589;22;45400;-89
2022/09/04 12:00:37;;;;;;;;;5.67;5.67;;;;;;;;6238954;22;45391;-88
2022/09/04 12:03:17;;;;;;;;;3.67;2.00;;;;;;;;6293469;22;45404;-88
2022/09/04 12:05:51;;;;;;;;;5.33;4.00;;;;;;;;6365272;22;45436;-88
2022/09/04 12:08:37;;;;;;;;;4.33;4.33;;;;;;;;6366379;22;45538;-87
2022/09/04 12:11:08;;;;;;;;;3.00;3.00;;;;;;;;6366320;22;45403;-88
2022/09/04 12:13:42;;;;;;;;;4.00;4.00;;;;;;;;6337639;22;45636;-89
2022/09/04 12:16:26;;;;;;;;;3.67;3.67;;;;;;;;6337403;22;47394;-89
2022/09/04 12:18:53;;;;;;;;;3.00;3.00;;;;;;;;6337990;22;45438;-89
2022/09/04 12:21:21;;;;;;;;;4.67;3.67;;;;;;;;6366322;22;45586;-88
2022/09/04 12:24:08;;;;;;;;;3.33;3.33;;;;;;;;6337305;22;45233;-88
2022/09/04 12:27:02;;;;;;;;;3.00;3.00;;;;;;;;6366545;22;45507;-88
2022/09/04 12:29:30;;;;;;;;;3.00;3.00;;;;;;;;6235508;22;45522;-88
2022/09/04 12:32:07;;;;;;;;;3.00;3.00;;;;;;;;6238271;22;45381;-89
2022/09/04 12:34:32;;;;;;;;;3.00;3.00;;;;;;;;6237267;22;45484;-88
2022/09/04 12:37:18;;;;;;;;;4.00;3.00;;;;;;;;6212398;22;48029;-89
2022/09/04 12:40:03;;;;;;;;;2.00;2.00;;;;;;;;6236999;22;45491;-90
2022/09/04 12:42:28;;;;;;;;;2.00;2.00;;;;;;;;6212014;22;45660;-89
2022/09/04 12:45:01;;;;;;;;;3.33;3.33;;;;;;;;6238638;22;45381;-89
2022/09/04 12:47:35;;;;;;;;;3.00;3.00;;;;;;;;6238712;22;45615;-89
2022/09/04 12:50:21;;;;;;;;;2.33;2.00;;;;;;;;6213345;22;45347;-89
2022/09/04 12:52:46;;;;;;;;;3.00;3.00;;;;;;;;6212602;22;45505;-87
2022/09/04 12:55:16;;;;;;;;;4.00;4.00;;;;;;;;6213209;22;45523;-88
2022/09/04 12:57:55;;;;;;;;;3.67;2.33;;;;;;;;6212900;22;47213;-88
2022/09/04 13:00:25;;;;;;;;;3.00;2.33;;;;;;;;6238285;22;45305;-88
2022/09/04 13:03:05;;;;;;;;;2.00;2.00;;;;;;;;6212282;22;45312;-89
2022/09/04 13:05:45;;;;;;;;;3.33;3.33;;;;;;;;6255616;22;45328;-89
2022/09/04 13:08:19;;;;;;;;;4.00;3.00;;;;;;;;6338552;22;46978;-89
2022/09/04 13:11:12;;;;;;;;;2.00;2.00;;;;;;;;6338648;22;45311;-88
2022/09/04 13:13:41;;;;;;;;;2.00;2.00;;;;;;;;6339417;22;45269;-88
2022/09/04 13:16:12;;;;;;;;;4.00;3.00;;;;;;;;6367710;22;45347;-89
2022/09/04 13:18:59;;;;;;;;;3.67;2.67;;;;;;;;6337624;22;47151;-88
2022/09/04 13:21:27;;;;;;;;;3.00;3.00;;;;;;;;6364953;22;45316;-88
2022/09/04 13:24:11;;;;;;;;;2.00;2.00;;;;;;;;6337404;22;45525;-90
2022/09/04 13:26:36;;;;;;;;;3.33;2.00;;;;;;;;6367649;22;45506;-90
2022/09/04 13:29:07;;;;;;;;;4.00;3.00;;;;;;;;6366968;22;45284;-90
2022/09/04 13:31:44;;;;;;;;;1.67;1.67;;;;;;;;6368126;22;45323;-90
2022/09/04 13:34:29;;;;;;;;;2.00;2.00;;;;;;;;6367025;22;45346;-89
2022/09/04 13:37:08;;;;;;;;;3.00;3.00;;;;;;;;6338705;22;45365;-89
2022/09/04 13:39:54;;;;;;;;;5.00;4.00;;;;;;;;6337514;22;47336;-90
2022/09/04 13:42:22;;;;;;;;;4.33;3.00;;;;;;;;6366617;22;45280;-88
2022/09/04 13:44:57;;;;;;;;;2.00;2.00;;;;;;;;6366247;22;45356;-89
2022/09/04 13:47:24;;;;;;;;;2.00;2.00;;;;;;;;6366238;22;45351;-88
2022/09/04 13:50:08;;;;;;;;;2.33;2.33;;;;;;;;6338875;22;47263;-89
2022/09/04 13:52:48;;;;;;;;;4.00;3.67;;;;;;;;6367524;22;45330;-90
2022/09/04 13:55:14;;;;;;;;;3.00;3.00;;;;;;;;6337796;22;45675;-89
2022/09/04 13:57:43;;;;;;;;;3.00;3.00;;;;;;;;6337893;22;45276;-88
2022/09/04 14:00:10;;;;;;;;;3.00;3.00;;;;;;;;6338488;22;48083;-88
2022/09/04 14:02:37;;;;;;;;;3.33;3.00;;;;;;;;6366632;22;45300;-89
2022/09/04 14:05:14;;;;;;;;;1.67;1.67;;;;;;;;6367075;22;45610;-89
2022/09/04 14:07:41;;;;;;;;;3.67;3.00;;;;;;;;6337290;22;45480;-88
2022/09/04 14:10:12;;;;;;;;;5.00;4.00;;;;;;;;6365838;22;46686;-88
2022/09/04 14:12:37;;;;;;;;;5.00;5.00;;;;;;;;6338291;22;45775;-88
2022/09/04 14:15:06;;;;;;;;;3.75;3.75;;;;;;;;6366031;22;45513;-88
2022/09/04 14:18:01;;;;;;;;;2.00;2.00;;;;;;;;6366487;22;45354;-88
2022/09/04 14:20:39;;;;;;;;;2.67;2.67;;;;;;;;6317864;22;48064;-88
2022/09/04 14:23:15;;;;;;;;;4.33;4.33;;;;;;;;6368072;22;45240;-90
2022/09/04 14:25:40;;;;;;;;;3.67;3.00;;;;;;;;6351852;22;44806;-95
2022/09/04 14:28:15;;;;;;;;;2.75;2.75;;;;;;;;6377892;22;45432;-96
2022/09/04 14:30:57;;;;;;;;;4.00;4.00;;;;;;;;6371887;22;45414;-96
2022/09/04 14:33:38;;;;;;;;;4.33;4.33;;;;;;;;6364667;22;45726;-93
2022/09/04 14:36:22;;;;;;;;;3.00;3.00;;;;;;;;6374705;22;45353;-93
2022/09/04 14:39:06;;;;;;;;;2.00;2.00;;;;;;;;6376836;22;45149;-95
2022/09/04 14:41:43;;;;;;;;;4.67;2.00;;;;;;;;6375021;22;45247;-95
2022/09/04 14:44:16;;;;;;;;;2.67;2.67;;;;;;;;6369849;22;45576;-96
2022/09/04 14:46:44;;;;;;;;;3.33;3.33;;;;;;;;6343351;22;45260;-95
2022/09/04 14:49:15;;;;;;;;;1.00;1.00;;;;;;;;6347215;22;45412;-96
2022/09/04 14:51:44;;;;;;;;;3.00;3.00;;;;;;;;6377857;22;46563;-95
2022/09/04 14:56:42;;;;;;;;;2.00;2.00;;;;;;;;6402763;22;45410;-96
2022/09/04 14:59:15;;;;;;;;;1.50;1.50;;;;;;;;6402853;22;45359;-95
2022/09/04 15:01:59;;;;;;;;;3.00;3.00;;;;;;;;6375348;22;47052;-96
2022/09/04 15:04:26;;;;;;;;;2.00;2.00;;;;;;;;6404909;22;45193;-96
2022/09/04 15:06:56;;;;;;;;;2.00;2.00;;;;;;;;6373780;22;45263;-96
2022/09/04 15:09:25;;;;;;;;;3.00;3.00;;;;;;;;6374437;22;45534;-96
2022/09/04 15:11:55;;;;;;;;;3.00;3.00;;;;;;;;6402388;22;45410;-96
2022/09/04 15:14:34;;;;;;;;;2.33;2.33;;;;;;;;6372357;22;45443;-96
2022/09/04 15:17:03;;;;;;;;;3.00;3.00;;;;;;;;6377925;22;45271;-96
2022/09/04 15:19:44;;;;;;;;;2.00;2.00;;;;;;;;6378945;22;45327;-96
2022/09/04 15:22:19;;;;;;;;;1.00;1.00;;;;;;;;6380930;22;47022;-96
2022/09/04 15:24:53;;;;;;;;;2.67;2.67;;;;;;;;6408113;22;45241;-96
2022/09/04 15:27:25;;;;;;;;;2.00;2.00;;;;;;;;6382809;22;45245;-96
2022/09/04 15:29:50;;;;;;;;;3.67;3.00;;;;;;;;6382091;22;45557;-95
2022/09/04 15:32:20;;;;;;;;;1.75;1.75;;;;;;;;6374269;22;46888;-95
2022/09/04 15:34:45;;;;;;;;;3.00;3.00;;;;;;;;6375372;22;45739;-96
2022/09/04 15:37:21;;;;;;;;;2.67;2.67;;;;;;;;6407757;22;45451;-96
2022/09/04 15:39:57;;;;;;;;;2.00;2.00;;;;;;;;6375306;22;45460;-89
2022/09/04 15:42:51;;;;;;;;;4.00;2.67;;;;;;;;6369977;22;47820;-89
2022/09/04 15:45:16;;;;;;;;;3.33;2.00;;;;;;;;6369912;22;45446;-91
2022/09/04 15:48:00;;;;;;;;;2.00;2.00;;;;;;;;6397734;22;45248;-91
2022/09/04 15:50:27;;;;;;;;;5.00;3.00;;;;;;;;6370199;22;45477;-89
2022/09/04 15:53:07;;;;;;;;;2.67;2.67;;;;;;;;6370015;22;47281;-90
2022/09/04 15:55:34;;;;;;;;;1.00;1.00;;;;;;;;6398022;22;45285;-89
2022/09/04 15:58:14;;;;;;;;;3.00;2.00;;;;;;;;6398526;22;45301;-90
2022/09/04 16:00:59;;;;;;;;;2.00;2.00;;;;;;;;6371233;22;45313;-90
2022/09/04 16:03:29;;;;;;;;;2.33;1.00;;;;;;;;6397857;22;47146;-90
2022/09/04 16:06:00;;;;;;;;;3.33;3.00;;;;;;;;6370431;22;45303;-89
2022/09/04 16:08:28;;;;;;;;;2.00;2.00;;;;;;;;6370047;22;45410;-88
2022/09/04 16:10:57;;;;;;;;;1.00;1.00;;;;;;;;6370039;22;45335;-90
2022/09/04 16:13:23;;;;;;;;;2.00;2.00;;;;;;;;6398830;22;45406;-88
2022/09/04 16:15:48;;;;;;;;;3.00;2.50;;;;;;;;6370454;22;45258;-88
2022/09/04 16:18:18;;;;;;;;;2.00;2.00;;;;;;;;6369264;22;45697;-86
2022/09/04 16:20:47;;;;;;;;;1.00;1.00;;;;;;;;6373501;22;45474;-88
2022/09/04 16:23:15;;;;;;;;;1.33;1.00;;;;;;;;6372481;22;46400;-88
2022/09/04 16:25:42;;;;;;;;;0.00;0.00;;;;;;;;6370725;22;45901;-85
2022/09/04 16:28:14;;;;;;;;;2.00;2.00;;;;;;;;6399936;22;45263;-87
2022/09/04 16:30:42;;;;;;;;;1.00;1.00;;;;;;;;6379493;22;45338;-89
2022/09/04 16:33:25;;;;;;;;;1.00;0.67;;;;;;;;6371188;22;47124;-87
2022/09/04 16:35:52;;;;;;;;;1.00;1.00;;;;;;;;6373078;22;45273;-91
2022/09/04 16:38:28;;;;;;;;;2.00;2.00;;;;;;;;6401468;22;45638;-87
2022/09/04 16:40:57;;;;;;;;;2.33;2.33;;;;;;;;6371523;22;45366;-90
2022/09/04 16:43:25;;;;;;;;;3.00;3.00;;;;;;;;6399667;22;45444;-91
2022/09/04 16:46:13;;;;;;;;;2.33;2.33;;;;;;;;6372159;22;45880;-94
2022/09/04 16:48:51;;;;;;;;;3.33;3.00;;;;;;;;6399635;22;45704;-88
2022/09/04 16:51:19;;;;;;;;;1.33;1.33;;;;;;;;6371563;22;45447;-89
2022/09/04 16:53:51;;;;;;;;;3.00;2.00;;;;;;;;6397925;22;45392;-89
2022/09/04 16:56:21;;;;;;;;;3.67;3.67;;;;;;;;6366242;22;45316;-89
2022/09/04 16:58:53;;;;;;;;;2.33;2.00;;;;;;;;6362729;22;45439;-88
2022/09/04 17:01:18;;;;;;;;;2.00;2.00;;;;;;;;6366208;22;45378;-89
2022/09/04 17:03:52;;;;;;;;;0.25;0.00;;;;;;;;6365202;22;47090;-89
2022/09/04 17:06:24;;;;;;;;;2.00;1.00;;;;;;;;6364592;22;45274;-89
2022/09/04 17:08:58;;;;;;;;;2.33;2.33;;;;;;;;6363039;22;45462;-90
2022/09/04 17:11:26;;;;;;;;;2.33;2.33;;;;;;;;6365064;22;45260;-88
2022/09/04 17:13:55;;;;;;;;;1.67;1.67;;;;;;;;6366556;22;48330;-91
2022/09/04 17:16:22;;;;;;;;;2.00;1.00;;;;;;;;6365376;22;45320;-92
2022/09/04 17:18:49;;;;;;;;;2.00;2.00;;;;;;;;6366800;22;45343;-93
2022/09/04 17:24:28;;;;;;;;;1.67;1.00;;;;;;;;6359962;22;45622;-91
2022/09/04 17:27:03;;;;;;;;;3.00;3.00;;;;;;;;6365897;22;45292;-92
2022/09/04 17:29:28;;;;;;;;;2.00;2.00;;;;;;;;6364737;22;45379;-91
2022/09/04 17:31:58;;;;;;;;;2.33;2.33;;;;;;;;6367483;22;45379;-91
2022/09/04 17:34:44;;;;;;;;;2.00;2.00;;;;;;;;6367392;22;46411;-92
2022/09/04 17:37:27;;;;;;;;;4.00;3.00;;;;;;;;6366991;22;45420;-91
2022/09/04 17:40:07;;;;;;;;;2.00;1.00;;;;;;;;6367975;22;45416;-92
2022/09/04 17:42:51;;;;;;;;;1.00;1.00;;;;;;;;6366431;22;45581;-91
2022/09/04 17:45:20;;;;;;;;;2.00;2.00;;;;;;;;6368612;22;45487;-90
2022/09/04 17:47:46;;;;;;;;;2.67;2.67;;;;;;;;6368975;22;45235;-93
2022/09/04 17:50:21;;;;;;;;;2.33;1.67;;;;;;;;6366224;22;45415;-91
2022/09/04 17:52:52;;;;;;;;;3.00;3.00;;;;;;;;6368995;22;45486;-93
2022/09/04 17:55:18;;;;;;;;;3.00;3.00;;;;;;;;6380849;22;45624;-93
2022/09/04 17:57:56;;;;;;;;;4.00;4.00;;;;;;;;6399980;22;45282;-93
2022/09/04 18:00:23;;;;;;;;;4.00;3.00;;;;;;;;6373932;22;45513;-91
2022/09/04 18:03:08;;;;;;;;;3.67;3.67;;;;;;;;6401693;22;45393;-96
2022/09/04 18:05:41;;;;;;;;;2.33;2.33;;;;;;;;6379192;22;47144;-92
2022/09/04 18:08:15;;;;;;;;;4.00;4.00;;;;;;;;6383313;22;45203;-92
2022/09/04 18:10:46;;;;;;;;;4.67;3.67;;;;;;;;6382216;22;45202;-91
2022/09/04 18:13:30;;;;;;;;;5.00;5.00;;;;;;;;6380870;22;45374;-92
2022/09/04 18:16:07;;;;;;;;;4.00;4.00;;;;;;;;6410012;22;45366;-92
2022/09/04 18:18:36;;;;;;;;;7.00;5.33;;;;;;;;6381051;22;45510;-95
2022/09/04 18:21:22;;;;;;;;;5.33;3.33;;;;;;;;6376796;22;45304;-92
2022/09/04 18:24:06;;;;;;;;;3.00;3.00;;;;;;;;6379187;22;45352;-90
2022/09/04 18:26:45;;;;;;;;;3.00;1.67;;;;;;;;6377942;22;47068;-92
2022/09/04 18:29:22;;;;;;;;;3.00;3.00;;;;;;;;6374419;22;45408;-91
2022/09/04 18:31:53;;;;;;;;;2.33;2.33;;;;;;;;6378661;22;45435;-92
2022/09/04 18:34:22;;;;;;;;;3.33;3.33;;;;;;;;6404253;22;45293;-93
2022/09/04 18:36:54;;;;;;;;;3.00;3.00;;;;;;;;6398725;22;46483;-90
2022/09/04 18:39:19;;;;;;;;;3.67;3.00;;;;;;;;6370658;22;45350;-95
2022/09/04 18:41:47;;;;;;;;;0.67;0.67;;;;;;;;6370414;22;45380;-91
2022/09/04 18:44:16;;;;;;;;;3.00;3.00;;;;;;;;6398208;22;45395;-91
2022/09/04 18:46:42;;;;;;;;;2.00;2.00;;;;;;;;6370168;22;47255;-92
2022/09/04 18:49:08;;;;;;;;;3.00;3.00;;;;;;;;6368344;22;46053;-93
2022/09/04 18:51:46;;;;;;;;;3.33;3.33;;;;;;;;6398929;22;45444;-92
2022/09/04 18:54:18;;;;;;;;;4.67;3.33;;;;;;;;6397751;22;45450;-92
2022/09/04 18:56:46;;;;;;;;;4.00;3.33;;;;;;;;6398377;22;45608;-92
2022/09/04 18:59:25;;;;;;;;;4.00;4.00;;;;;;;;6370030;22;45588;-91
2022/09/04 19:02:10;;;;;;;;;5.00;3.67;;;;;;;;6399446;22;45302;-92
2022/09/04 19:04:48;;;;;;;;;5.67;4.00;;;;;;;;6398628;22;45300;-91
2022/09/04 19:07:16;;;;;;;;;2.00;2.00;;;;;;;;6399090;22;46218;-90
2022/09/04 19:09:59;;;;;;;;;4.67;3.67;;;;;;;;6368796;22;45482;-92
2022/09/04 19:12:29;;;;;;;;;5.33;4.00;;;;;;;;6399118;22;45538;-91
2022/09/04 19:14:58;;;;;;;;;4.00;3.67;;;;;;;;6369437;22;45327;-92
2022/09/04 19:17:25;;;;;;;;;6.00;4.00;;;;;;;;6398890;22;45610;-93
2022/09/04 19:19:54;;;;;;;;;3.67;3.00;;;;;;;;6368709;22;45501;-92
2022/09/04 19:22:22;;;;;;;;;6.00;3.67;;;;;;;;6399223;22;45417;-92
2022/09/04 19:24:53;;;;;;;;;4.00;4.00;;;;;;;;6368460;22;45395;-91
2022/09/04 19:27:37;;;;;;;;;3.33;2.67;;;;;;;;6398587;22;46105;-91
2022/09/04 19:30:04;;;;;;;;;5.00;5.00;;;;;;;;6397733;22;45319;-91
2022/09/04 19:32:36;;;;;;;;;7.00;4.33;;;;;;;;6369202;22;45517;-90
2022/09/04 19:35:05;;;;;;;;;4.00;4.00;;;;;;;;6397204;22;45354;-91
2022/09/04 19:37:30;;;;;;;;;4.33;3.67;;;;;;;;6369917;22;47865;-90
2022/09/04 19:40:03;;;;;;;;;7.00;5.00;;;;;;;;6396964;22;45295;-91
2022/09/04 19:42:28;;;;;;;;;5.00;5.00;;;;;;;;6400072;22;45206;-90
2022/09/04 19:44:59;;;;;;;;;3.00;3.00;;;;;;;;6372635;22;45259;-95
2022/09/04 19:47:30;;;;;;;;;3.00;3.00;;;;;;;;6413789;22;45674;-96
2022/09/04 19:50:18;;;;;;;;;4.67;4.67;;;;;;;;6386597;22;45375;-96
2022/09/04 19:52:48;;;;;;;;;4.33;4.33;;;;;;;;6391911;22;45418;-96
2022/09/04 19:55:34;;;;;;;;;6.67;6.67;;;;;;;;6388407;22;44899;-96
2022/09/04 19:58:04;;;;;;;;;4.33;4.33;;;;;;;;6388190;22;46423;-96
2022/09/04 20:00:53;;;;;;;;;8.00;5.00;;;;;;;;6389183;22;45350;-96
2022/09/04 20:03:22;;;;;;;;;6.00;3.33;;;;;;;;6385506;22;45362;-96
2022/09/04 20:05:51;;;;;;;;;6.67;5.67;;;;;;;;6381818;22;45261;-96
2022/09/04 20:08:31;;;;;;;;;3.00;3.00;;;;;;;;6391915;22;47062;-96
2022/09/04 20:11:02;;;;;;;;;4.00;4.00;;;;;;;;6389494;22;44616;-96
2022/09/04 20:14:07;;;;;;;;;4.33;4.33;;;;;;;;6392167;22;45167;-96
2022/09/04 20:16:32;;;;;;;;;5.00;3.67;;;;;;;;6267473;22;45500;-96
2022/09/04 20:19:07;;;;;;;;;6.33;3.67;;;;;;;;6270392;22;46610;-96
2022/09/04 20:21:58;;;;;;;;;5.33;4.67;;;;;;;;6297349;22;44843;-96
2022/09/04 20:24:44;;;;;;;;;3.00;3.00;;;;;;;;6296700;22;44746;-96
2022/09/04 20:27:14;;;;;;;;;4.67;3.33;;;;;;;;6271675;22;44961;-96
2022/09/04 20:29:46;;;;;;;;;5.33;3.33;;;;;;;;6270793;22;47414;-96
2022/09/04 20:32:18;;;;;;;;;4.67;3.67;;;;;;;;6270512;22;44737;-96
2022/09/04 20:34:43;;;;;;;;;4.33;4.33;;;;;;;;6268680;22;45448;-96
2022/09/04 20:37:24;;;;;;;;;3.00;3.00;;;;;;;;6271401;22;44855;-96
2022/09/04 20:40:10;;;;;;;;;4.00;4.00;;;;;;;;6269249;22;46557;-96
2022/09/04 20:42:56;;;;;;;;;3.00;3.00;;;;;;;;6296145;22;45189;-96
2022/09/04 20:45:30;;;;;;;;;0.67;0.67;;;;;;;;6293829;22;45499;-96
2022/09/04 20:48:01;;;;;;;;;2.33;2.33;;;;;;;;6360779;22;44757;-96
2022/09/04 20:50:36;;;;;;;;;1.67;1.67;;;;;;;;6391661;22;46490;-96
2022/09/04 20:53:22;;;;;;;;;3.67;2.33;;;;;;;;6388975;22;44739;-96
2022/09/04 20:56:08;;;;;;;;;4.67;4.00;;;;;;;;6388085;22;45487;-96
2022/09/04 20:58:38;;;;;;;;;4.33;3.33;;;;;;;;6388263;22;44883;-96
2022/09/04 21:01:06;;;;;;;;;3.00;3.00;;;;;;;;6388409;22;45393;-96
2022/09/04 21:03:37;;;;;;;;;4.33;4.00;;;;;;;;6386768;22;45353;-96
2022/09/04 21:06:23;;;;;;;;;3.00;3.00;;;;;;;;6387786;22;44615;-96
2022/09/04 21:08:55;;;;;;;;;3.33;3.00;;;;;;;;6387096;22;44889;-96
2022/09/04 21:11:26;;;;;;;;;3.67;3.00;;;;;;;;6386856;22;47087;-96
2022/09/04 21:13:59;;;;;;;;;3.00;3.00;;;;;;;;6388103;22;44813;-96
2022/09/04 21:16:43;;;;;;;;;4.00;2.00;;;;;;;;6387704;22;45402;-96
2022/09/04 21:19:27;;;;;;;;;5.33;4.00;;;;;;;;6386681;22;45415;-96
2022/09/04 21:21:53;;;;;;;;;4.00;4.00;;;;;;;;6386467;22;46893;-96
2022/09/04 21:24:50;;;;;;;;;4.00;3.00;;;;;;;;6386615;22;45033;-96
2022/09/04 21:27:16;;;;;;;;;3.00;3.00;;;;;;;;6266178;22;44690;-96
2022/09/04 21:30:01;;;;;;;;;2.33;2.33;;;;;;;;6265355;22;44800;-96
2022/09/04 21:32:29;;;;;;;;;3.67;3.67;;;;;;;;6265805;22;47169;-96
2022/09/04 21:35:03;;;;;;;;;3.00;3.00;;;;;;;;6264424;22;45393;-96
2022/09/04 21:37:43;;;;;;;;;5.67;3.00;;;;;;;;6265483;22;44734;-96
2022/09/04 21:40:27;;;;;;;;;0.67;0.67;;;;;;;;6265458;22;45424;-96
2022/09/04 21:42:58;;;;;;;;;1.00;1.00;;;;;;;;6264967;22;46973;-96
2022/09/04 21:45:38;;;;;;;;;2.00;2.00;;;;;;;;6237394;22;45723;-95
2022/09/04 21:48:14;;;;;;;;;3.67;3.00;;;;;;;;6264796;22;45298;-96
2022/09/04 21:50:51;;;;;;;;;2.00;2.00;;;;;;;;6264094;22;45334;-96
2022/09/04 21:53:30;;;;;;;;;4.00;4.00;;;;;;;;6263257;22;46668;-96
2022/09/04 21:56:15;;;;;;;;;2.00;1.67;;;;;;;;6261324;22;45425;-96
2022/09/04 22:05:56;;;;;;;;;2.33;2.33;;;;;;;;6272740;22;45627;-96
2022/09/04 22:08:39;;;;;;;;;2.00;2.00;;;;;;;;6194993;23;45382;-96
2022/09/04 22:15:09;;;;;;;;;4.00;2.00;;;;;;;;6283531;22;44873;-96
2022/09/04 22:20:54;;;;;;;;;1.00;0.00;;;;;;;;6253647;22;45458;-96